Fremont, NE

8:54 PM CST on November 20, 2017 (GMT -0600)
Fremont Municipal

Weather History for KFET - October, 2012

Change the Weather History Date:

Tuesday, October 2, 2012

  Actual Average Record
Temperature  
Mean Temperature 54 °F -  
Max Temperature 75 °F 75 °F 95 °F (1953)
Min Temperature 33 °F 45 °F 28 °F (1974)
Degree Days  
Heating Degree Days 11    
Growing Degree Days 4 (Base 50)    
Moisture  
Dew Point 32 °F    
Average Humidity 51    
Maximum Humidity 94    
Minimum Humidity 17    
Precipitation  
Precipitation 0.00 in - - ()
Sea Level Pressure  
Sea Level Pressure 29.95 in    
Wind  
Wind Speed 4 mph (SW)    
Max Wind Speed 8 mph    
Max Gust Speed -    
Visibility 10 miles    
Events      
Averages and records for this station are not official NWS values.
T = Trace of Precipitation, MM = Missing Value Source: NWS Daily Summary

Daily Weather History Graph

Daily Weather History Graph

Search for Another Location

Airport or City:

Trip Planner

Search our weather history database for the weather conditions in past years. The results will help you decide how hot, cold, wet, or windy it might be!

Date:

Astronomy

Oct. 02, 2012 Rise Set
Actual Time 7:24 AM CDT 7:05 PM CDT
Civil Twilight 6:56 AM CDT 7:32 PM CDT
Nautical Twilight 6:24 AM CDT 8:04 PM CDT
Astronomical Twilight 5:52 AM CDT 8:37 PM CDT
Moon 8:16 PM CDT (10/2) 9:55 AM CDT (10/2)
Length of Visible Light 12h 36m
Length of Day
11h 40m
Waning Gibbous, 94% of the Moon is Illuminated
Oct 2
Waning Gibbous
Oct 8
Last Quarter
Oct 15
New
Oct 21
First Quarter
Oct 29
Full

Hourly Weather History & Observations

Time (CDT) Temp. Windchill Dew Point Humidity Pressure Visibility Wind Dir Wind Speed Gust Speed Precip Events Conditions
12:15 AM 45.9 °F 44.6 °F 38.1 °F 74% 30.01 in 10.0 mi West 3.5 mph - N/A   Clear
12:35 AM 44.2 °F 41.0 °F 37.4 °F 77% 30.01 in 10.0 mi West 5.8 mph - N/A   Clear
1:15 AM 43.0 °F 40.3 °F 37.0 °F 80% 30.01 in 10.0 mi West 4.6 mph - N/A   Clear
1:35 AM 43.2 °F 40.5 °F 36.7 °F 78% 30.01 in 10.0 mi West 4.6 mph - N/A   Clear
2:15 AM 42.4 °F 39.6 °F 36.0 °F 78% 30.01 in 10.0 mi West 4.6 mph - N/A   Clear
2:35 AM 41.2 °F 38.2 °F 35.4 °F 80% 30.01 in 10.0 mi West 4.6 mph - N/A   Clear
2:55 AM 39.9 °F 35.8 °F 34.7 °F 82% 30.01 in 10.0 mi West 5.8 mph - N/A   Clear
3:15 AM 39.6 °F 36.3 °F 34.7 °F 83% 30.01 in 10.0 mi WNW 4.6 mph - N/A   Clear
3:35 AM 39.2 °F 35.0 °F 34.3 °F 83% 30.00 in 10.0 mi West 5.8 mph - N/A   Clear
3:55 AM 38.8 °F 34.6 °F 34.0 °F 83% 30.00 in 10.0 mi West 5.8 mph - N/A   Clear
4:15 AM 37.4 °F 33.8 °F 33.6 °F 86% 30.00 in 10.0 mi West 4.6 mph - N/A   Clear
4:35 AM 36.5 °F 32.7 °F 33.4 °F 89% 30.00 in 10.0 mi West 4.6 mph - N/A   Clear
4:55 AM 36.3 °F 31.6 °F 32.9 °F 87% 30.00 in 10.0 mi West 5.8 mph - N/A   Clear
5:35 AM 36.5 °F 31.8 °F 33.1 °F 87% 30.00 in 10.0 mi West 5.8 mph - N/A   Clear
5:55 AM 36.0 °F 29.6 °F 33.3 °F 90% 30.00 in 10.0 mi West 8.1 mph - N/A   Clear
6:15 AM 36.5 °F 31.8 °F 33.8 °F 90% 30.00 in 10.0 mi WNW 5.8 mph - N/A   Clear
6:35 AM 35.6 °F 30.7 °F 33.1 °F 91% 30.00 in 10.0 mi WNW 5.8 mph - N/A   Clear
6:55 AM 35.1 °F 30.1 °F 33.1 °F 92% 30.00 in 10.0 mi WNW 5.8 mph - N/A   Clear
7:15 AM 34.0 °F 29.8 °F 32.4 °F 94% 30.00 in 10.0 mi WNW 4.6 mph - N/A   Clear
7:35 AM 33.8 °F 29.6 °F 32.2 °F 94% 30.00 in 10.0 mi WNW 4.6 mph - N/A   Clear
7:55 AM 34.2 °F 31.2 °F 32.5 °F 94% 30.00 in 7.0 mi WNW 3.5 mph - N/A   Clear
8:15 AM 36.7 °F 32.9 °F 35.1 °F 94% 30.01 in 7.0 mi WNW 4.6 mph - N/A   Clear
8:35 AM 39.9 °F 35.8 °F 37.0 °F 89% 30.01 in 10.0 mi WNW 5.8 mph - N/A   Clear
8:55 AM 42.8 °F 39.3 °F 38.3 °F 84% 30.01 in 10.0 mi West 5.8 mph - N/A   Clear
9:15 AM 46.0 °F 43.9 °F 38.8 °F 76% 30.01 in 10.0 mi West 4.6 mph - N/A   Clear
9:35 AM 49.1 °F - 38.7 °F 67% 30.01 in 10.0 mi WNW 6.9 mph - N/A   Clear
9:55 AM 52.0 °F - 39.0 °F 61% 30.01 in 10.0 mi West 6.9 mph - N/A   Clear
10:15 AM 54.5 °F - 38.1 °F 54% 30.01 in 10.0 mi West 5.8 mph - N/A   Clear
10:35 AM 57.2 °F - 37.6 °F 48% 30.01 in 10.0 mi West 4.6 mph - N/A   Clear
10:55 AM 59.9 °F - 36.7 °F 42% 30.01 in 10.0 mi Calm Calm - N/A   Clear
11:15 AM 62.2 °F - 37.2 °F 39% 30.00 in 10.0 mi Calm Calm - N/A   Clear
11:35 AM 63.5 °F - 36.5 °F 37% 30.00 in 10.0 mi Calm Calm - N/A   Clear
11:55 AM 65.5 °F - 36.5 °F 34% 29.99 in 10.0 mi Calm Calm - N/A   Clear
12:15 PM 66.9 °F - 34.5 °F 30% 29.98 in 10.0 mi SW 4.6 mph - N/A   Clear
12:35 PM 67.1 °F - 32.2 °F 27% 29.97 in 10.0 mi SSW 3.5 mph - N/A   Clear
12:55 PM 68.4 °F - 31.5 °F 25% 29.96 in 10.0 mi South 5.8 mph - N/A   Clear
1:15 PM 69.1 °F - 29.7 °F 23% 29.96 in 10.0 mi SSW 3.5 mph - N/A   Clear
1:35 PM 70.3 °F - 28.8 °F 21% 29.94 in 10.0 mi WSW 4.6 mph - N/A   Clear
1:55 PM 70.7 °F - 29.3 °F 21% 29.93 in 10.0 mi West 5.8 mph - N/A   Clear
2:15 PM 71.8 °F - 30.4 °F 22% 29.92 in 10.0 mi WSW 8.1 mph - N/A   Clear
2:35 PM 71.1 °F - 30.6 °F 22% 29.91 in 10.0 mi West 4.6 mph - N/A   Clear
2:55 PM 73.0 °F - 29.8 °F 20% 29.90 in 10.0 mi NW 3.5 mph - N/A   Clear
3:15 PM 73.8 °F - 28.8 °F 19% 29.89 in 10.0 mi Calm Calm - N/A   Clear
3:35 PM 73.8 °F - 27.1 °F 18% 29.89 in 10.0 mi SSE 4.6 mph - N/A   Clear
3:55 PM 74.3 °F - 27.1 °F 17% 29.88 in 10.0 mi SSE 4.6 mph - N/A   Clear
4:15 PM 75.2 °F - 28.0 °F 18% 29.87 in 10.0 mi Calm Calm - N/A   Clear
4:35 PM 74.5 °F - 27.0 °F 17% 29.87 in 10.0 mi SSW 4.6 mph - N/A   Clear
4:55 PM 75.0 °F - 27.5 °F 17% 29.86 in 10.0 mi SSW 4.6 mph - N/A   Clear
5:15 PM 74.5 °F - 26.4 °F 17% 29.86 in 10.0 mi SSW 3.5 mph - N/A   Clear
5:35 PM 74.3 °F - 27.1 °F 17% 29.86 in 10.0 mi South 4.6 mph - N/A   Clear
5:55 PM 73.8 °F - 26.6 °F 17% 29.86 in 10.0 mi SW 3.5 mph - N/A   Clear
6:15 PM 73.0 °F - 27.5 °F 18% 29.87 in 10.0 mi South 4.6 mph - N/A   Clear
6:35 PM 71.4 °F - 28.0 °F 20% 29.87 in 10.0 mi SSE 3.5 mph - N/A   Clear
7:15 PM 65.7 °F - 30.7 °F 27% 29.86 in 10.0 mi SE 4.6 mph - N/A   Clear
7:35 PM 61.3 °F - 30.2 °F 31% 29.86 in 10.0 mi SSE 4.6 mph - N/A   Clear
7:55 PM 60.4 °F - 31.1 °F 33% 29.86 in 10.0 mi SE 4.6 mph - N/A   Clear
8:15 PM 59.4 °F - 30.0 °F 33% 29.86 in 10.0 mi SSE 3.5 mph - N/A   Clear
8:35 PM 57.4 °F - 29.3 °F 34% 29.87 in 10.0 mi SSE 3.5 mph - N/A   Clear
8:55 PM 57.2 °F - 29.7 °F 35% 29.87 in 10.0 mi SSE 3.5 mph - N/A   Clear
9:15 PM 55.4 °F - 29.5 °F 37% 29.87 in 10.0 mi SE 4.6 mph - N/A   Clear
9:35 PM 56.8 °F - 29.3 °F 35% 29.88 in 10.0 mi SSE 3.5 mph - N/A   Clear
9:55 PM 53.8 °F - 29.3 °F 39% 29.88 in 10.0 mi SE 3.5 mph - N/A   Clear
10:15 PM 55.0 °F - 29.8 °F 38% 29.88 in 10.0 mi SSE 3.5 mph - N/A   Clear
10:35 PM 55.2 °F - 29.8 °F 38% 29.88 in 10.0 mi SSE 3.5 mph - N/A   Clear
10:55 PM 54.5 °F - 29.7 °F 39% 29.88 in 10.0 mi SSE 4.6 mph - N/A   Clear
11:15 PM 53.1 °F - 29.1 °F 40% 29.88 in 10.0 mi SSE 4.6 mph - N/A   Clear
11:35 PM 53.6 °F - 29.1 °F 39% 29.89 in 10.0 mi SSE 3.5 mph - N/A   Clear
11:55 PM 55.8 °F - 28.9 °F 36% 29.88 in 10.0 mi SE 3.5 mph - N/A   Clear